createdAt,value
2019-03-24T00:01:27.018Z,68.0
2019-03-24T00:11:27.618Z,67.1
2019-03-24T00:21:27.560Z,69.6
2019-03-24T00:31:27.214Z,69.3
2019-03-24T00:41:25.851Z,66.3
2019-03-24T00:51:26.634Z,67.3
2019-03-24T01:01:27.211Z,70.3
2019-03-24T01:11:26.061Z,73.5
2019-03-24T01:21:26.019Z,72.8
2019-03-24T01:31:27.009Z,70.7
2019-03-24T01:41:26.994Z,66.2
2019-03-24T01:51:26.679Z,63.1
2019-03-24T02:01:26.413Z,59.7
2019-03-24T02:11:26.187Z,59.7
2019-03-24T02:21:26.386Z,62.3
2019-03-24T02:31:26.318Z,65.3
2019-03-24T02:41:28.162Z,63.3
2019-03-24T02:51:27.510Z,55.5
2019-03-24T03:01:26.556Z,49.5
2019-03-24T03:11:27.437Z,31.8
2019-03-24T03:21:27.459Z,32.4
2019-03-24T03:31:27.563Z,31.9
2019-03-24T03:41:27.045Z,29.2
2019-03-24T03:51:26.521Z,26.6
2019-03-24T04:01:26.280Z,25.7
2019-03-24T04:11:25.921Z,26.7
2019-03-24T04:21:26.152Z,22.7
2019-03-24T04:31:26.939Z,22.3
2019-03-24T04:41:26.569Z,20.9
2019-03-24T04:51:26.706Z,22.5
2019-03-24T05:01:27.046Z,21.2
2019-03-24T05:11:32.250Z,22.1
2019-03-24T05:21:27.005Z,21.7
2019-03-24T05:31:27.589Z,20.5
2019-03-24T05:41:27.063Z,19.8
2019-03-24T05:51:25.807Z,20.2
2019-03-24T06:01:26.523Z,20.6
2019-03-24T06:11:26.126Z,17.2
2019-03-24T06:21:27.437Z,16.7
2019-03-24T06:31:26.136Z,18.1
2019-03-24T06:41:25.955Z,18.3
2019-03-24T06:51:27.232Z,18.7
2019-03-24T07:01:25.881Z,17.9
2019-03-24T07:11:26.886Z,17.7
2019-03-24T07:21:26.794Z,20.3
2019-03-24T07:31:28.730Z,17.5
2019-03-24T07:41:26.767Z,19.0
2019-03-24T07:51:25.789Z,17.6
2019-03-24T08:01:26.485Z,15.7
2019-03-24T08:11:26.340Z,15.1
2019-03-24T08:21:26.240Z,14.0
2019-03-24T08:31:27.124Z,14.8
2019-03-24T08:41:26.265Z,14.0
2019-03-24T08:51:27.508Z,12.8
2019-03-24T09:01:26.198Z,12.9
2019-03-24T09:11:31.350Z,10.6
2019-03-24T09:21:27.829Z,11.5
2019-03-24T09:31:26.667Z,10.8
2019-03-24T09:41:27.750Z,10.6
2019-03-24T09:51:26.916Z,11.4
2019-03-24T10:01:26.712Z,12.9
2019-03-24T10:11:27.608Z,12.5
2019-03-24T10:21:26.815Z,10.9
2019-03-24T10:31:26.669Z,11.1
2019-03-24T10:41:26.382Z,11.6
2019-03-24T10:51:26.571Z,10.6
2019-03-24T11:01:26.976Z,9.6
2019-03-24T11:11:27.583Z,8.7
2019-03-24T11:21:26.874Z,9.7
2019-03-24T11:31:27.319Z,9.6
2019-03-24T11:41:26.417Z,8.2
2019-03-24T11:51:26.409Z,9.9
2019-03-24T12:01:37.694Z,9.7
2019-03-24T12:11:27.503Z,8.5
2019-03-24T12:21:27.020Z,9.5
2019-03-24T12:31:26.800Z,8.4
2019-03-24T12:41:27.856Z,8.6
2019-03-24T12:51:27.190Z,8.9
2019-03-24T13:01:25.958Z,9.3
2019-03-24T13:11:27.316Z,9.2
2019-03-24T13:21:26.065Z,9.4
2019-03-24T13:31:26.216Z,8.9
2019-03-24T13:41:26.510Z,9.4
2019-03-24T13:51:26.584Z,10.0
2019-03-24T14:01:27.609Z,9.6
2019-03-24T14:21:27.048Z,11.4
2019-03-24T14:31:26.872Z,12.1
2019-03-24T14:41:26.995Z,11.3
2019-03-24T14:51:27.072Z,9.7
2019-03-24T15:01:26.581Z,11.4
2019-03-24T15:11:26.892Z,10.0
2019-03-24T15:21:28.563Z,9.9
2019-03-24T15:31:26.462Z,10.0
2019-03-24T15:41:26.332Z,10.5
2019-03-24T15:51:25.152Z,10.5
2019-03-24T16:01:27.981Z,11.6
2019-03-24T16:11:25.976Z,11.0
2019-03-24T16:21:27.949Z,9.5
2019-03-24T16:31:26.769Z,10.0
2019-03-24T16:41:26.745Z,9.7
2019-03-24T16:51:26.565Z,9.5
2019-03-24T17:01:27.791Z,10.1
2019-03-24T17:11:26.506Z,11.6
2019-03-24T17:21:26.199Z,10.6
2019-03-24T17:31:26.766Z,11.6
2019-03-24T17:41:26.903Z,13.8
2019-03-24T17:51:27.221Z,12.0
2019-03-24T18:01:27.295Z,14.7
2019-03-24T18:11:26.180Z,14.5
2019-03-24T18:21:26.707Z,15.8
2019-03-24T18:31:26.823Z,16.8
2019-03-24T18:41:28.353Z,17.7
2019-03-24T18:51:25.882Z,18.9
2019-03-24T19:01:27.124Z,18.8
2019-03-24T19:11:27.034Z,21.0
2019-03-24T19:21:27.013Z,20.7
2019-03-24T19:31:27.515Z,21.9
2019-03-24T19:41:32.193Z,21.5
2019-03-24T19:51:26.312Z,21.1
2019-03-24T20:01:27.137Z,20.3
2019-03-24T20:11:30.442Z,22.8
2019-03-24T20:21:27.241Z,22.1
2019-03-24T20:31:25.909Z,20.1
2019-03-24T20:41:27.463Z,18.7
2019-03-24T20:51:26.168Z,16.2
2019-03-24T21:01:26.980Z,15.5
2019-03-24T21:11:26.631Z,11.2
2019-03-24T21:21:27.690Z,14.6
2019-03-24T21:31:27.794Z,12.9
2019-03-24T21:41:26.969Z,8.4
2019-03-24T21:51:26.769Z,6.5
2019-03-24T22:01:33.347Z,5.6
2019-03-24T22:11:27.489Z,7.6
2019-03-24T22:21:26.939Z,7.3
2019-03-24T22:31:27.593Z,5.3
2019-03-24T22:41:27.457Z,5.8
2019-03-24T22:51:26.618Z,5.6
2019-03-24T23:01:26.355Z,5.0
2019-03-24T23:11:27.482Z,5.4
2019-03-24T23:21:28.390Z,5.3
2019-03-24T23:31:26.428Z,6.0
2019-03-24T23:41:26.164Z,6.2
2019-03-24T23:51:27.555Z,7.3
